Weather History for DeLand, FL

Change the Weather History Date:

Tuesday, November 20, 2012

  Actual Average Record
Temperature  
Mean Temperature 60 °F -  
Max Temperature 68 °F 76 °F 78 °F (2013)
Min Temperature 51 °F 54 °F 62 °F (2013)
Degree Days  
Heating Degree Days 4    
Growing Degree Days 10 (Base 50)    
Moisture  
Dew Point 54 °F    
Average Humidity 81    
Maximum Humidity 100    
Minimum Humidity 68    
Precipitation  
Precipitation 0.00 in - - ()
Sea Level Pressure  
Sea Level Pressure 30.06 in    
Wind  
Wind Speed 7 mph ()    
Max Wind Speed 14 mph    
Max Gust Speed 20 mph    
Visibility 7.7 miles    
Events      
Averages and records for this station are not official NWS values.
T = Trace of Precipitation, MM = Missing Value Source: Averaged Metar Reports

Daily Weather History Graph

Daily Weather History Graph

Search for Another Location

Airport:

Trip Planner

Search our weather history database for the weather conditions in past years. The results will help you decide how hot, cold, wet, or windy it might be!

Date:

Astronomy

Nov. 20, 2012 Rise Set
Actual Time 6:52 AM EST 5:28 PM EST
Civil Twilight 6:27 AM EST 5:53 PM EST
Nautical Twilight 5:58 AM EST 6:22 PM EST
Astronomical Twilight 5:30 AM EST 6:51 PM EST
Moon 12:42 PM EST (11/20) No Moon Set
Length of Visible Light 11h 26m
Length of Day
10h 35m
Waxing Crescent, 51% of the Moon is Illuminated
Nov 20
Waxing Crescent
Nov 28
Full
Dec 6
Last Quarter
Dec 13
New
Dec 20
First Quarter

Hourly Weather History & Observations

Time (EST) Temp. Dew Point Humidity Pressure Visibility Wind Dir Wind Speed Gust Speed Precip Events Conditions
12:15 AM 57.2 °F 55.4 °F 94% 30.09 in 6.0 mi NE 9.2 mph - N/A   Overcast
12:35 AM 57.2 °F 55.4 °F 94% 30.08 in 5.0 mi NE 8.1 mph - N/A   Overcast
12:55 AM 57.2 °F 55.4 °F 94% 30.08 in 5.0 mi NE 9.2 mph - N/A   Overcast
1:15 AM 57.2 °F 55.4 °F 94% 30.07 in 5.0 mi NE 9.2 mph - N/A   Overcast
1:35 AM 57.2 °F 55.4 °F 94% 30.07 in 5.0 mi NE 6.9 mph - N/A   Overcast
1:55 AM 57.2 °F 55.4 °F 94% 30.06 in 5.0 mi NE 6.9 mph - N/A   Mostly Cloudy
2:15 AM 55.4 °F 55.4 °F 100% 30.05 in 5.0 mi NE 5.8 mph - N/A   Mostly Cloudy
2:55 AM 55.4 °F 53.6 °F 94% 30.04 in 4.0 mi North - - N/A   Clear
3:15 AM 55.4 °F 53.6 °F 94% 30.05 in 4.0 mi North - - N/A   Clear
6:55 AM 55.4 °F 53.6 °F 94% 30.08 in 6.0 mi NE 6.9 mph - N/A   Clear
7:15 AM 55.4 °F 55.4 °F 100% 30.09 in 7.0 mi NE 8.1 mph - N/A   Clear
7:55 AM 57.2 °F 55.4 °F 94% 30.10 in 7.0 mi NE 9.2 mph - N/A   Clear
8:15 AM 59.0 °F 55.4 °F 88% 30.10 in 7.0 mi NE 8.1 mph - N/A   Clear
8:35 AM 60.8 °F 55.4 °F 82% 30.10 in 8.0 mi NE 9.2 mph - N/A   Clear
8:55 AM 62.6 °F 55.4 °F 77% 30.10 in 9.0 mi NE 10.4 mph - N/A   Clear
9:15 AM 64.4 °F 55.4 °F 73% 30.10 in 8.0 mi NE 11.5 mph 16.1 mph N/A   Clear
9:35 AM 64.4 °F 55.4 °F 73% 30.10 in 8.0 mi NNE 11.5 mph - N/A   Clear
9:55 AM 66.2 °F 55.4 °F 68% 30.10 in 8.0 mi ENE 13.8 mph - N/A   Clear
10:15 AM 66.2 °F 55.4 °F 68% 30.10 in 9.0 mi NE 11.5 mph - N/A   Clear
10:35 AM 66.2 °F 55.4 °F 68% 30.10 in 8.0 mi ENE 13.8 mph 19.6 mph N/A   Scattered Clouds
10:55 AM 66.2 °F 55.4 °F 68% 30.09 in 9.0 mi NE 13.8 mph 18.4 mph N/A   Scattered Clouds
11:15 AM 68.0 °F 57.2 °F 68% 30.09 in 9.0 mi ENE 12.7 mph - N/A   Partly Cloudy
11:35 AM 68.0 °F 57.2 °F 68% 30.08 in 9.0 mi NNE 12.7 mph - N/A   Scattered Clouds
11:55 AM 66.2 °F 55.4 °F 68% 30.08 in 9.0 mi ENE 11.5 mph - N/A   Scattered Clouds
12:15 PM 66.2 °F 55.4 °F 68% 30.08 in 9.0 mi NE 10.4 mph - N/A   Mostly Cloudy
12:55 PM 66.2 °F 55.4 °F 68% 30.07 in 8.0 mi NE 12.7 mph - N/A   Mostly Cloudy
1:15 PM 64.4 °F 55.4 °F 73% 30.06 in 8.0 mi NNE 11.5 mph 18.4 mph N/A   Overcast
1:35 PM 64.4 °F 55.4 °F 73% 30.05 in 8.0 mi NE 11.5 mph - N/A   Overcast
1:55 PM 64.4 °F 55.4 °F 73% 30.04 in 9.0 mi NNE 12.7 mph - N/A   Mostly Cloudy
2:15 PM 64.4 °F 55.4 °F 73% 30.04 in 9.0 mi NE 10.4 mph - N/A   Mostly Cloudy
2:35 PM 64.4 °F 55.4 °F 73% 30.04 in 9.0 mi ENE 9.2 mph - N/A   Overcast
2:55 PM 64.4 °F 55.4 °F 73% 30.04 in 9.0 mi East 9.2 mph - N/A   Overcast
3:15 PM 66.2 °F 55.4 °F 68% 30.04 in 9.0 mi East 11.5 mph - N/A   Overcast
3:35 PM 64.4 °F 55.4 °F 73% 30.04 in 9.0 mi NNE 10.4 mph - N/A   Overcast
3:55 PM 64.4 °F 55.4 °F 73% 30.05 in 10.0 mi NE 10.4 mph - N/A   Scattered Clouds
4:15 PM 64.4 °F 55.4 °F 73% 30.03 in 9.0 mi NNE 8.1 mph - N/A   Clear
4:35 PM 64.4 °F 55.4 °F 73% 30.03 in 9.0 mi NNE 5.8 mph - N/A   Clear
4:55 PM 64.4 °F 53.6 °F 68% 30.03 in 9.0 mi NNE 8.1 mph - N/A   Clear
5:15 PM 64.4 °F 53.6 °F 68% 30.03 in 9.0 mi Calm Calm - N/A   Clear
5:35 PM 62.6 °F 53.6 °F 72% 30.03 in 9.0 mi Calm Calm - N/A   Clear
5:55 PM 60.8 °F 53.6 °F 77% 30.03 in 8.0 mi Calm Calm - N/A   Clear
6:15 PM 60.8 °F 53.6 °F 77% 30.04 in 10.0 mi Calm Calm - N/A   Clear
6:35 PM 59.0 °F 53.6 °F 82% 30.04 in 9.0 mi ENE 3.5 mph - N/A   Clear
6:55 PM 57.2 °F 53.6 °F 88% 30.05 in 8.0 mi ENE 4.6 mph - N/A   Clear
7:15 PM 57.2 °F 51.8 °F 82% 30.05 in 9.0 mi Calm Calm - N/A   Clear
7:35 PM 57.2 °F 51.8 °F 82% 30.06 in 8.0 mi Calm Calm - N/A   Clear
7:55 PM 55.4 °F 51.8 °F 88% 30.06 in 8.0 mi Calm Calm - N/A   Clear
8:15 PM 55.4 °F 51.8 °F 88% 30.06 in 9.0 mi Calm Calm - N/A   Clear
8:35 PM 55.4 °F 51.8 °F 88% 30.07 in 8.0 mi East 4.6 mph - N/A   Clear
8:55 PM 55.4 °F 51.8 °F 88% 30.07 in 8.0 mi Calm Calm - N/A   Clear
9:15 PM 55.4 °F 51.8 °F 88% 30.07 in 8.0 mi Calm Calm - N/A   Clear
9:55 PM 55.4 °F 51.8 °F 88% 30.07 in 8.0 mi Calm Calm - N/A   Clear
10:15 PM 55.4 °F 51.8 °F 88% 30.07 in 9.0 mi Calm Calm - N/A   Clear
10:35 PM 53.6 °F 51.8 °F 94% 30.07 in 7.0 mi Calm Calm - N/A   Clear
10:55 PM 53.6 °F 50.0 °F 88% 30.07 in 6.0 mi Calm Calm - N/A   Clear
11:15 PM 53.6 °F 50.0 °F 88% 30.07 in 7.0 mi Calm Calm - N/A   Clear
11:35 PM 53.6 °F 50.0 °F 88% 30.06 in 5.0 mi Calm Calm - N/A   Clear
11:55 PM 51.8 °F 50.0 °F 94% 30.05 in 7.0 mi Calm Calm - N/A   Clear